Time;durP1;ratioP1;P1;durP2;ratioP2;P2;SDS_P1;SDS_P2;PMS_P1;PMS_P2;Temp;Humidity;BMP_temperature;BMP_pressure;BME280_temperature;BME280_humidity;BME280_pressure;Samples;Min_cycle;Max_cycle;Signal;HPM_P1;HPM_P2
2022/07/21 00:01:12;;;;;;;10.30;5.82;;;;;;;;;;5092472;28;20026;-68
2022/07/21 00:03:39;;;;;;;6.72;5.53;;;;;;;;;;5092951;28;20036;-69
2022/07/21 00:06:05;;;;;;;8.43;5.75;;;;;;;;;;5092617;28;20031;-69
2022/07/21 00:08:32;;;;;;;9.95;5.38;;;;;;;;;;5092892;28;20050;-69
2022/07/21 00:10:58;;;;;;;10.60;5.63;;;;;;;;;;5092142;28;20047;-69
2022/07/21 00:13:25;;;;;;;7.57;5.78;;;;;;;;;;5092539;28;20027;-69
2022/07/21 00:15:51;;;;;;;9.38;5.45;;;;;;;;;;5092167;28;20027;-69
2022/07/21 00:18:18;;;;;;;9.32;5.38;;;;;;;;;;5092533;28;20495;-69
2022/07/21 00:20:44;;;;;;;7.20;5.30;;;;;;;;;;5092613;28;20089;-69
2022/07/21 00:23:10;;;;;;;8.07;5.55;;;;;;;;;;5092512;28;20031;-69
2022/07/21 00:25:37;;;;;;;10.27;5.53;;;;;;;;;;5092102;28;20601;-69
2022/07/21 00:28:03;;;;;;;9.73;5.70;;;;;;;;;;5092344;28;20028;-68
2022/07/21 00:30:30;;;;;;;7.85;5.65;;;;;;;;;;5074381;28;20043;-69
2022/07/21 00:32:56;;;;;;;7.43;5.50;;;;;;;;;;5072222;28;20028;-69
2022/07/21 00:35:22;;;;;;;6.05;5.25;;;;;;;;;;5071931;28;20028;-68
2022/07/21 00:37:49;;;;;;;7.63;5.55;;;;;;;;;;5071952;28;20024;-69
2022/07/21 00:40:15;;;;;;;10.25;5.75;;;;;;;;;;5078729;28;20044;-69
2022/07/21 00:42:42;;;;;;;10.18;5.88;;;;;;;;;;5092243;28;20024;-69
2022/07/21 00:45:09;;;;;;;7.53;5.70;;;;;;;;;;5091970;28;20031;-69
2022/07/21 00:47:36;;;;;;;8.70;5.82;;;;;;;;;;5092226;28;20028;-69
2022/07/21 00:50:03;;;;;;;8.30;5.45;;;;;;;;;;5091043;28;20038;-68
2022/07/21 00:52:30;;;;;;;7.55;5.38;;;;;;;;;;5092042;28;20024;-68
2022/07/21 00:54:56;;;;;;;8.20;5.45;;;;;;;;;;5092165;28;20013;-68
2022/07/21 00:57:22;;;;;;;10.95;5.53;;;;;;;;;;5091965;28;20481;-68
2022/07/21 00:59:49;;;;;;;8.10;5.82;;;;;;;;;;5090489;28;20024;-69
2022/07/21 01:02:15;;;;;;;9.68;5.82;;;;;;;;;;5092260;28;20053;-69
2022/07/21 01:04:42;;;;;;;7.47;5.30;;;;;;;;;;5092017;28;20391;-69
2022/07/21 01:07:08;;;;;;;9.15;5.10;;;;;;;;;;5092207;28;20035;-68
2022/07/21 01:09:35;;;;;;;7.63;5.43;;;;;;;;;;5091710;28;20054;-69
2022/07/21 01:12:01;;;;;;;6.10;5.18;;;;;;;;;;5091821;28;20020;-69
2022/07/21 01:14:28;;;;;;;9.73;5.70;;;;;;;;;;5091526;28;20054;-69
2022/07/21 01:16:54;;;;;;;7.18;5.03;;;;;;;;;;5091897;28;20027;-68
2022/07/21 01:19:21;;;;;;;7.85;5.10;;;;;;;;;;5091908;28;20434;-69
2022/07/21 01:21:48;;;;;;;7.13;5.00;;;;;;;;;;5093120;28;20530;-69
2022/07/21 01:24:14;;;;;;;8.63;5.38;;;;;;;;;;5087296;28;20203;-68
2022/07/21 01:26:42;;;;;;;9.95;4.82;;;;;;;;;;5075337;28;20038;-69
2022/07/21 01:29:09;;;;;;;6.55;5.05;;;;;;;;;;5074998;28;20055;-68
2022/07/21 01:31:36;;;;;;;9.43;4.90;;;;;;;;;;5075236;28;20034;-69
2022/07/21 01:34:02;;;;;;;8.65;5.35;;;;;;;;;;5075242;28;20024;-69
2022/07/21 01:36:28;;;;;;;7.10;5.20;;;;;;;;;;5075260;28;20021;-68
2022/07/21 01:41:40;;;;;;;6.80;4.70;;;;;;;;;;5093634;28;20027;-68
2022/07/21 01:44:08;;;;;;;8.23;5.43;;;;;;;;;;5095083;28;20032;-68
2022/07/21 01:46:39;;;;;;;8.48;5.50;;;;;;;;;;5095576;28;20027;-69
2022/07/21 01:49:06;;;;;;;10.55;4.95;;;;;;;;;;5095366;28;20383;-68
2022/07/21 01:51:33;;;;;;;10.52;5.38;;;;;;;;;;5095190;28;20036;-68
2022/07/21 01:54:00;;;;;;;9.73;5.47;;;;;;;;;;5095239;28;20069;-68
2022/07/21 01:56:26;;;;;;;10.07;6.15;;;;;;;;;;5095391;28;20032;-68
2022/07/21 01:58:56;;;;;;;11.57;6.32;;;;;;;;;;5094714;28;20016;-68
2022/07/21 02:01:23;;;;;;;7.55;5.68;;;;;;;;;;5094964;28;20388;-68
2022/07/21 02:03:50;;;;;;;8.85;6.40;;;;;;;;;;5095038;28;20020;-68
2022/07/21 02:06:16;;;;;;;7.22;5.60;;;;;;;;;;5094951;28;20516;-67
2022/07/21 02:08:43;;;;;;;7.90;5.60;;;;;;;;;;5095108;28;20032;-68
2022/07/21 02:11:09;;;;;;;8.73;5.90;;;;;;;;;;5094490;28;20069;-67
2022/07/21 02:13:36;;;;;;;10.40;5.93;;;;;;;;;;5094971;28;20035;-67
2022/07/21 02:16:03;;;;;;;11.50;6.70;;;;;;;;;;5094717;28;20065;-68
2022/07/21 02:18:29;;;;;;;7.47;6.05;;;;;;;;;;5095088;28;20032;-68
2022/07/21 02:20:56;;;;;;;9.30;6.57;;;;;;;;;;5094633;28;20028;-68
2022/07/21 02:23:23;;;;;;;11.40;6.50;;;;;;;;;;5094435;28;20399;-69
2022/07/21 02:25:51;;;;;;;6.75;5.55;;;;;;;;;;5094482;28;20031;-69
2022/07/21 02:28:18;;;;;;;9.85;5.90;;;;;;;;;;5094935;28;20023;-69
2022/07/21 02:30:45;;;;;;;10.52;6.05;;;;;;;;;;5094443;28;20092;-68
2022/07/21 02:33:11;;;;;;;8.32;5.88;;;;;;;;;;5094151;28;20016;-69
2022/07/21 02:35:38;;;;;;;7.07;5.65;;;;;;;;;;5094357;28;20031;-69
2022/07/21 02:38:04;;;;;;;9.23;6.30;;;;;;;;;;5094163;28;20030;-69
2022/07/21 02:40:31;;;;;;;9.63;5.43;;;;;;;;;;5094093;28;20092;-68
2022/07/21 02:42:57;;;;;;;7.47;5.75;;;;;;;;;;5094337;28;20028;-69
2022/07/21 02:45:23;;;;;;;6.72;5.05;;;;;;;;;;5094121;28;20020;-69
2022/07/21 02:48:01;;;;;;;8.18;5.65;;;;;;;;;;5094512;28;20030;-68
2022/07/21 02:50:28;;;;;;;7.43;6.28;;;;;;;;;;5094036;28;20040;-69
2022/07/21 02:52:58;;;;;;;10.18;5.75;;;;;;;;;;5094239;28;20027;-68
2022/07/21 02:55:26;;;;;;;10.33;6.47;;;;;;;;;;5094071;28;20059;-69
2022/07/21 02:58:11;;;;;;;16.40;6.40;;;;;;;;;;5094070;28;20438;-68
2022/07/21 03:00:39;;;;;;;10.50;6.65;;;;;;;;;;5093844;28;20509;-69
2022/07/21 03:03:05;;;;;;;8.68;6.05;;;;;;;;;;5094359;28;20039;-68
2022/07/21 03:05:32;;;;;;;7.90;6.43;;;;;;;;;;5093864;28;20028;-69
2022/07/21 03:07:58;;;;;;;10.38;6.03;;;;;;;;;;5093952;28;20093;-69
2022/07/21 03:10:25;;;;;;;9.68;6.10;;;;;;;;;;5093463;28;20036;-69
2022/07/21 03:12:51;;;;;;;9.45;5.68;;;;;;;;;;5093629;28;20495;-68
2022/07/21 03:15:18;;;;;;;7.55;5.85;;;;;;;;;;5093853;28;20502;-69
2022/07/21 03:17:44;;;;;;;8.93;6.18;;;;;;;;;;5093753;28;20024;-69
2022/07/21 03:20:11;;;;;;;9.48;6.63;;;;;;;;;;5093481;28;20035;-69
2022/07/21 03:22:37;;;;;;;11.15;6.18;;;;;;;;;;5093686;28;20034;-69
2022/07/21 03:25:04;;;;;;;10.18;6.20;;;;;;;;;;5093274;28;20016;-69
2022/07/21 03:27:30;;;;;;;8.70;6.00;;;;;;;;;;5093431;28;20381;-69
2022/07/21 03:29:56;;;;;;;7.88;6.03;;;;;;;;;;5093545;28;20028;-69
2022/07/21 03:32:23;;;;;;;10.77;6.72;;;;;;;;;;5093293;28;20077;-69
2022/07/21 03:34:49;;;;;;;10.07;6.60;;;;;;;;;;5093338;28;20496;-69
2022/07/21 03:37:15;;;;;;;9.02;6.10;;;;;;;;;;5093204;28;20500;-69
2022/07/21 03:39:41;;;;;;;9.82;6.18;;;;;;;;;;5092661;28;20036;-69
2022/07/21 03:42:08;;;;;;;9.15;6.10;;;;;;;;;;5093160;28;20024;-69
2022/07/21 03:44:34;;;;;;;9.57;5.32;;;;;;;;;;5092689;28;20032;-68
2022/07/21 03:47:00;;;;;;;11.45;6.30;;;;;;;;;;5093030;28;20494;-68
2022/07/21 03:49:27;;;;;;;8.60;6.30;;;;;;;;;;5092943;28;20028;-69
2022/07/21 03:51:53;;;;;;;8.43;5.55;;;;;;;;;;5093266;28;20039;-69
2022/07/21 03:54:19;;;;;;;9.15;6.47;;;;;;;;;;5092644;28;20403;-69
2022/07/21 03:56:46;;;;;;;10.73;5.75;;;;;;;;;;5092816;28;20031;-69
2022/07/21 03:59:12;;;;;;;8.85;6.15;;;;;;;;;;5092845;28;20026;-69
2022/07/21 04:01:38;;;;;;;7.07;5.75;;;;;;;;;;5091547;28;20036;-69
2022/07/21 04:04:05;;;;;;;8.32;6.22;;;;;;;;;;5092903;28;20024;-68
2022/07/21 04:06:31;;;;;;;7.25;6.05;;;;;;;;;;5092846;28;20020;-68
2022/07/21 04:08:58;;;;;;;8.13;5.78;;;;;;;;;;5092270;28;20414;-69
2022/07/21 04:11:24;;;;;;;7.95;5.93;;;;;;;;;;5092499;28;20036;-68
2022/07/21 04:13:50;;;;;;;6.75;5.75;;;;;;;;;;5092592;28;20020;-68
2022/07/21 04:16:16;;;;;;;8.25;5.53;;;;;;;;;;5092754;28;20024;-68
2022/07/21 04:18:43;;;;;;;10.88;6.30;;;;;;;;;;5092534;28;20506;-68
2022/07/21 04:21:09;;;;;;;8.05;5.78;;;;;;;;;;5092704;28;20032;-68
2022/07/21 04:23:35;;;;;;;9.57;6.70;;;;;;;;;;5091902;28;20013;-68
2022/07/21 04:26:02;;;;;;;11.15;6.60;;;;;;;;;;5092399;28;20498;-69
2022/07/21 04:28:28;;;;;;;8.70;5.70;;;;;;;;;;5092428;28;20384;-69
2022/07/21 04:30:54;;;;;;;8.00;6.15;;;;;;;;;;5090919;28;20038;-69
2022/07/21 04:33:21;;;;;;;8.82;6.03;;;;;;;;;;5092634;28;20028;-69
2022/07/21 04:35:47;;;;;;;11.77;6.30;;;;;;;;;;5092221;28;20410;-69
2022/07/21 04:38:14;;;;;;;9.50;6.07;;;;;;;;;;5090724;28;20036;-69
2022/07/21 04:40:40;;;;;;;9.98;6.10;;;;;;;;;;5092014;28;20512;-68
2022/07/21 04:43:06;;;;;;;8.48;6.07;;;;;;;;;;5092279;28;20492;-69
2022/07/21 04:45:33;;;;;;;9.13;6.22;;;;;;;;;;5091110;28;20032;-69
2022/07/21 04:47:59;;;;;;;12.18;7.22;;;;;;;;;;5092383;28;20036;-69
2022/07/21 04:50:26;;;;;;;10.35;6.43;;;;;;;;;;5091999;28;20040;-69
2022/07/21 04:52:53;;;;;;;8.48;6.60;;;;;;;;;;5091678;28;20024;-68
2022/07/21 04:55:20;;;;;;;10.75;6.75;;;;;;;;;;5093011;28;20035;-69
2022/07/21 04:57:48;;;;;;;10.88;5.95;;;;;;;;;;5096376;28;20487;-68
2022/07/21 05:00:15;;;;;;;15.68;6.68;;;;;;;;;;5096181;28;20024;-69
2022/07/21 05:02:42;;;;;;;15.35;6.80;;;;;;;;;;5096421;28;20028;-69
2022/07/21 05:05:09;;;;;;;11.73;7.10;;;;;;;;;;5095856;28;20030;-68
2022/07/21 05:07:35;;;;;;;10.43;6.78;;;;;;;;;;5096068;28;20031;-67
2022/07/21 05:10:05;;;;;;;12.60;6.75;;;;;;;;;;5096134;28;20035;-68
2022/07/21 05:12:32;;;;;;;10.73;6.80;;;;;;;;;;5096074;28;20020;-69
2022/07/21 05:14:58;;;;;;;10.98;6.60;;;;;;;;;;5096337;28;20028;-68
2022/07/21 05:17:25;;;;;;;9.23;6.57;;;;;;;;;;5095909;28;20380;-68
2022/07/21 05:19:51;;;;;;;10.35;6.43;;;;;;;;;;5095605;28;20031;-69
2022/07/21 05:22:17;;;;;;;8.80;6.25;;;;;;;;;;5096109;28;20051;-67
2022/07/21 05:24:44;;;;;;;10.13;6.57;;;;;;;;;;5094385;28;20028;-69
2022/07/21 05:27:10;;;;;;;12.60;6.47;;;;;;;;;;5095840;28;20515;-68
2022/07/21 05:29:37;;;;;;;11.32;6.97;;;;;;;;;;5095996;28;20020;-68
2022/07/21 05:32:03;;;;;;;11.65;6.80;;;;;;;;;;5094452;28;20034;-68
2022/07/21 05:34:30;;;;;;;9.13;6.60;;;;;;;;;;5095469;28;20429;-68
2022/07/21 05:36:56;;;;;;;15.35;7.03;;;;;;;;;;5095553;28;20028;-68
2022/07/21 05:39:22;;;;;;;11.63;6.35;;;;;;;;;;5095503;28;20036;-69
2022/07/21 05:41:49;;;;;;;11.43;6.97;;;;;;;;;;5095253;28;20032;-69
2022/07/21 05:44:15;;;;;;;11.65;6.80;;;;;;;;;;5095584;28;20112;-68
2022/07/21 05:46:41;;;;;;;10.05;6.72;;;;;;;;;;5095699;28;20039;-69
2022/07/21 05:49:08;;;;;;;14.55;6.68;;;;;;;;;;5093850;28;20016;-69
2022/07/21 05:51:34;;;;;;;11.13;6.72;;;;;;;;;;5095074;28;20069;-68
2022/07/21 05:54:01;;;;;;;16.95;6.25;;;;;;;;;;5095335;28;20016;-69
2022/07/21 05:56:27;;;;;;;12.27;6.70;;;;;;;;;;5095240;28;20024;-68
2022/07/21 05:58:53;;;;;;;10.18;6.40;;;;;;;;;;5084147;28;20034;-68
2022/07/21 06:01:20;;;;;;;10.65;6.47;;;;;;;;;;5083554;28;20450;-68
2022/07/21 06:03:47;;;;;;;11.73;7.10;;;;;;;;;;5074398;28;20028;-68
2022/07/21 06:06:16;;;;;;;14.27;6.63;;;;;;;;;;5074593;28;20025;-67
2022/07/21 06:08:43;;;;;;;14.15;7.45;;;;;;;;;;5073770;28;20024;-67
2022/07/21 06:11:10;;;;;;;10.77;7.18;;;;;;;;;;5074389;28;20036;-66
2022/07/21 06:13:36;;;;;;;11.38;6.93;;;;;;;;;;5074349;28;20025;-67
2022/07/21 06:16:03;;;;;;;12.13;7.32;;;;;;;;;;5084743;28;20020;-67
2022/07/21 06:18:29;;;;;;;10.95;7.07;;;;;;;;;;5094406;28;20028;-68
2022/07/21 06:20:56;;;;;;;8.45;6.63;;;;;;;;;;5094583;28;20392;-67
2022/07/21 06:23:22;;;;;;;11.02;7.15;;;;;;;;;;5093101;28;20472;-68
2022/07/21 06:25:49;;;;;;;8.75;6.95;;;;;;;;;;5094421;28;20464;-68
2022/07/21 06:28:15;;;;;;;16.50;7.25;;;;;;;;;;5094313;28;20032;-67
2022/07/21 06:30:42;;;;;;;11.30;6.60;;;;;;;;;;5083883;28;20036;-68
2022/07/21 06:33:08;;;;;;;9.57;6.93;;;;;;;;;;5084215;28;20618;-68
2022/07/21 06:35:35;;;;;;;11.35;7.20;;;;;;;;;;5070810;28;20021;-68
2022/07/21 06:38:01;;;;;;;8.90;7.10;;;;;;;;;;5072716;28;20028;-68
2022/07/21 06:40:27;;;;;;;9.10;6.95;;;;;;;;;;5082541;28;20044;-68
2022/07/21 06:42:54;;;;;;;10.13;6.82;;;;;;;;;;5091713;28;20034;-68
2022/07/21 06:45:20;;;;;;;10.10;7.18;;;;;;;;;;5084686;28;20032;-68
2022/07/21 06:47:47;;;;;;;12.63;6.72;;;;;;;;;;5074883;28;20027;-68
2022/07/21 06:50:13;;;;;;;10.23;6.97;;;;;;;;;;5072510;28;20028;-68
2022/07/21 06:52:39;;;;;;;9.68;6.63;;;;;;;;;;5073554;28;20029;-68
2022/07/21 06:55:07;;;;;;;8.65;6.53;;;;;;;;;;5084013;28;20077;-68
2022/07/21 06:57:34;;;;;;;13.48;6.60;;;;;;;;;;5081174;28;20042;-68
2022/07/21 07:00:01;;;;;;;9.25;6.90;;;;;;;;;;5077818;28;20024;-68
2022/07/21 07:02:27;;;;;;;10.57;7.05;;;;;;;;;;5073121;28;20070;-68
2022/07/21 07:04:53;;;;;;;10.38;6.47;;;;;;;;;;5091548;28;20544;-68
2022/07/21 07:07:20;;;;;;;10.50;6.15;;;;;;;;;;5080657;28;20058;-68
2022/07/21 07:09:46;;;;;;;8.98;5.93;;;;;;;;;;5072622;28;20388;-68
2022/07/21 07:12:12;;;;;;;10.55;6.45;;;;;;;;;;5072768;28;20025;-68
2022/07/21 07:14:39;;;;;;;12.07;6.45;;;;;;;;;;5071529;28;20134;-68
2022/07/21 07:17:05;;;;;;;9.23;6.18;;;;;;;;;;5072687;28;20023;-68
2022/07/21 07:19:32;;;;;;;13.90;6.07;;;;;;;;;;5071692;28;20024;-68
2022/07/21 07:21:58;;;;;;;14.75;6.45;;;;;;;;;;5072304;28;20070;-69
2022/07/21 07:24:25;;;;;;;9.13;6.20;;;;;;;;;;5068622;28;20481;-67
2022/07/21 07:26:51;;;;;;;10.35;6.53;;;;;;;;;;5070623;28;20518;-67
2022/07/21 07:29:17;;;;;;;8.23;5.85;;;;;;;;;;5070537;28;20040;-67
2022/07/21 07:31:44;;;;;;;10.10;6.38;;;;;;;;;;5071355;28;20040;-67
2022/07/21 07:34:10;;;;;;;8.23;6.10;;;;;;;;;;5070847;28;20077;-67
2022/07/21 07:36:36;;;;;;;10.02;6.18;;;;;;;;;;5071675;28;20035;-67
2022/07/21 07:39:03;;;;;;;8.80;6.22;;;;;;;;;;5070834;28;20043;-67
2022/07/21 07:41:31;;;;;;;8.18;6.22;;;;;;;;;;5070474;28;20029;-67
2022/07/21 07:43:59;;;;;;;8.95;6.10;;;;;;;;;;5074738;28;20028;-67
2022/07/21 07:46:26;;;;;;;11.05;5.47;;;;;;;;;;5091475;28;20028;-67
2022/07/21 07:48:52;;;;;;;7.63;5.53;;;;;;;;;;5088505;28;20036;-67
2022/07/21 07:51:19;;;;;;;10.07;5.40;;;;;;;;;;5079331;28;20032;-68
2022/07/21 07:53:45;;;;;;;10.90;6.32;;;;;;;;;;5088181;28;20072;-67
2022/07/21 07:56:11;;;;;;;8.07;5.55;;;;;;;;;;5091585;28;20027;-68
2022/07/21 07:58:38;;;;;;;8.30;5.47;;;;;;;;;;5073244;28;20028;-67
2022/07/21 08:01:05;;;;;;;7.05;5.28;;;;;;;;;;5071215;28;20025;-66
2022/07/21 08:03:31;;;;;;;9.73;6.85;;;;;;;;;;5074454;28;20476;-67
2022/07/21 08:06:02;;;;;;;8.40;5.70;;;;;;;;;;5079379;28;20041;-67
2022/07/21 08:08:28;;;;;;;14.95;5.15;;;;;;;;;;5070845;28;20455;-68
2022/07/21 08:10:55;;;;;;;11.57;5.45;;;;;;;;;;5074388;28;20036;-67
2022/07/21 08:13:21;;;;;;;7.65;4.97;;;;;;;;;;5070432;28;20033;-68
2022/07/21 08:15:48;;;;;;;8.75;5.18;;;;;;;;;;5069701;28;20016;-67
2022/07/21 08:18:14;;;;;;;6.95;4.47;;;;;;;;;;5069233;28;20029;-68
2022/07/21 08:20:41;;;;;;;7.22;4.93;;;;;;;;;;5069512;28;20392;-65
2022/07/21 08:23:08;;;;;;;4.80;4.38;;;;;;;;;;5070911;28;20031;-68
2022/07/21 08:25:34;;;;;;;6.40;4.63;;;;;;;;;;5078570;28;20028;-67
2022/07/21 08:28:01;;;;;;;7.43;4.50;;;;;;;;;;5082881;28;20028;-67
2022/07/21 08:30:27;;;;;;;7.07;4.60;;;;;;;;;;5069793;28;20024;-68
2022/07/21 08:32:53;;;;;;;7.97;4.63;;;;;;;;;;5070468;28;20024;-68
2022/07/21 08:35:20;;;;;;;4.78;4.20;;;;;;;;;;5070312;28;20031;-68
2022/07/21 08:38:00;;;;;;;4.50;4.07;;;;;;;;;;5071018;28;20025;-68
2022/07/21 08:40:26;;;;;;;;;;;;;;;;;;5079075;28;20052;-66
2022/07/21 08:42:54;;;;;;;4.65;4.10;;;;;;;;;;5090379;28;19924;-65
2022/07/21 08:45:22;;;;;;;4.78;4.00;;;;;;;;;;5075410;28;20027;-68
2022/07/21 08:47:58;;;;;;;5.88;4.22;;;;;;;;;;5079959;28;20031;-68
2022/07/21 08:50:25;;;;;;;5.40;4.07;;;;;;;;;;5070113;28;20030;-67
2022/07/21 08:52:51;;;;;;;9.30;4.15;;;;;;;;;;5073257;28;20036;-67
2022/07/21 08:55:18;;;;;;;6.10;4.00;;;;;;;;;;5069654;28;20031;-68
2022/07/21 08:57:44;;;;;;;7.22;3.90;;;;;;;;;;5069969;28;20032;-68
2022/07/21 09:00:10;;;;;;;6.50;4.20;;;;;;;;;;5070098;28;20033;-67
2022/07/21 09:02:37;;;;;;;5.93;3.83;;;;;;;;;;5070492;28;20017;-67
2022/07/21 09:05:05;;;;;;;6.57;3.90;;;;;;;;;;5069784;28;20030;-67
2022/07/21 09:07:51;;;;;;;5.28;3.88;;;;;;;;;;5069833;28;20029;-66
2022/07/21 09:10:23;;;;;;;8.32;4.20;;;;;;;;;;5067345;28;20032;-68
2022/07/21 09:12:54;;;;;;;6.32;4.03;;;;;;;;;;5069972;28;20492;-67
2022/07/21 09:15:22;;;;;;;4.63;3.83;;;;;;;;;;5069973;28;20033;-68
2022/07/21 09:18:07;;;;;;;5.93;3.88;;;;;;;;;;5070388;28;20101;-67
2022/07/21 09:20:34;;;;;;;6.75;4.18;;;;;;;;;;5070135;28;20388;-67
2022/07/21 09:23:04;;;;;;;6.90;4.15;;;;;;;;;;5070150;28;20028;-67
2022/07/21 09:25:31;;;;;;;;;;;;;;;;;;5089398;28;20443;-67
2022/07/21 09:28:07;;;;;;;5.63;4.32;;;;;;;;;;5072457;28;19910;-67
2022/07/21 09:30:47;;;;;;;6.32;4.30;;;;;;;;;;5070262;28;20024;-67
2022/07/21 09:33:24;;;;;;;8.27;3.97;;;;;;;;;;5070233;28;20035;-67
2022/07/21 09:35:54;;;;;;;4.38;3.90;;;;;;;;;;5068979;28;20525;-67
2022/07/21 09:38:21;;;;;;;5.13;4.10;;;;;;;;;;5070231;28;20028;-67
2022/07/21 09:40:48;;;;;;;5.57;3.72;;;;;;;;;;5081162;28;20032;-67
2022/07/21 09:43:34;;;;;;;5.38;3.75;;;;;;;;;;5092437;28;20030;-67
2022/07/21 09:46:03;;;;;;;4.40;4.00;;;;;;;;;;5083965;28;20050;-67
2022/07/21 09:48:33;;;;;;;4.82;3.63;;;;;;;;;;5094234;28;20022;-67
2022/07/21 09:51:19;;;;;;;7.05;3.80;;;;;;;;;;5093515;28;20036;-67
2022/07/21 09:53:56;;;;;;;6.43;3.55;;;;;;;;;;5081394;28;20023;-68
2022/07/21 09:56:25;;;;;;;6.55;3.85;;;;;;;;;;5073298;28;20048;-68
2022/07/21 09:58:52;;;;;;;5.00;4.00;;;;;;;;;;5073414;28;20036;-68
2022/07/21 10:01:19;;;;;;;5.10;4.03;;;;;;;;;;5072286;28;20032;-67
2022/07/21 10:03:46;;;;;;;7.30;3.78;;;;;;;;;;5072404;28;20025;-67
2022/07/21 10:06:14;;;;;;;5.40;3.72;;;;;;;;;;5072589;28;20035;-67
2022/07/21 10:08:41;;;;;;;5.45;3.90;;;;;;;;;;5072586;28;20501;-68
2022/07/21 10:11:08;;;;;;;7.03;3.92;;;;;;;;;;5072939;28;20038;-67
2022/07/21 10:13:35;;;;;;;9.80;3.70;;;;;;;;;;5072732;28;20035;-67
2022/07/21 10:16:01;;;;;;;4.68;3.35;;;;;;;;;;5072946;28;20408;-68
2022/07/21 10:18:31;;;;;;;4.95;3.80;;;;;;;;;;5073046;28;20024;-67
2022/07/21 10:21:02;;;;;;;5.07;3.67;;;;;;;;;;5072780;28;20035;-68
2022/07/21 10:23:29;;;;;;;6.18;3.75;;;;;;;;;;5072801;28;20024;-68
2022/07/21 10:25:55;;;;;;;3.80;3.45;;;;;;;;;;5072707;28;20037;-67
2022/07/21 10:28:23;;;;;;;9.63;3.45;;;;;;;;;;5072845;28;20027;-67
2022/07/21 10:30:50;;;;;;;3.80;3.45;;;;;;;;;;5072834;28;20069;-66
2022/07/21 10:33:17;;;;;;;5.78;3.40;;;;;;;;;;5072723;28;20442;-68
2022/07/21 10:35:45;;;;;;;7.28;3.88;;;;;;;;;;5071516;28;20024;-66
2022/07/21 10:38:29;;;;;;;4.30;3.88;;;;;;;;;;5071983;28;20060;-68
2022/07/21 10:40:56;;;;;;;10.07;3.35;;;;;;;;;;5083923;28;20038;-68
2022/07/21 10:43:26;;;;;;;8.23;4.15;;;;;;;;;;5073526;28;20020;-68
2022/07/21 10:45:55;;;;;;;5.87;3.90;;;;;;;;;;5072780;28;20024;-68
2022/07/21 10:48:37;;;;;;;6.20;3.95;;;;;;;;;;5066447;28;20039;-68
2022/07/21 10:51:04;;;;;;;4.45;3.60;;;;;;;;;;5072557;28;20036;-68
2022/07/21 10:53:31;;;;;;;5.68;3.97;;;;;;;;;;5071667;28;20021;-67
2022/07/21 10:55:57;;;;;;;5.55;4.10;;;;;;;;;;5072880;28;20031;-67
2022/07/21 10:58:23;;;;;;;4.47;3.75;;;;;;;;;;5071838;28;20027;-68
2022/07/21 11:00:52;;;;;;;8.20;3.78;;;;;;;;;;5072043;28;20033;-68
2022/07/21 11:03:20;;;;;;;7.78;3.80;;;;;;;;;;5072517;28;20025;-68
2022/07/21 11:06:05;;;;;;;5.38;3.53;;;;;;;;;;5072309;28;20059;-69
2022/07/21 11:08:32;;;;;;;6.40;4.00;;;;;;;;;;5070391;28;20034;-69
2022/07/21 11:11:12;;;;;;;4.70;3.67;;;;;;;;;;5072124;28;20501;-70
2022/07/21 11:14:05;;;;;;;4.00;3.28;;;;;;;;;;5071981;28;20028;-72
2022/07/21 11:16:56;;;;;;;7.97;3.90;;;;;;;;;;5068455;28;20027;-78
2022/07/21 11:19:29;;;;;;;8.25;4.30;;;;;;;;;;5061971;28;20041;-71
2022/07/21 11:21:57;;;;;;;7.70;4.20;;;;;;;;;;5072807;28;20029;-69
2022/07/21 11:24:24;;;;;;;5.85;4.15;;;;;;;;;;5081501;28;20388;-69
2022/07/21 11:27:07;;;;;;;6.57;3.70;;;;;;;;;;5092936;28;20032;-69
2022/07/21 11:29:34;;;;;;;6.53;4.05;;;;;;;;;;5092972;28;20027;-70
2022/07/21 11:32:03;;;;;;;7.80;3.97;;;;;;;;;;5092938;28;20040;-71
2022/07/21 11:34:49;;;;;;;7.33;3.90;;;;;;;;;;5092923;28;20430;-75
2022/07/21 11:37:27;;;;;;;8.43;3.80;;;;;;;;;;5092819;28;20250;-74
2022/07/21 11:39:54;;;;;;;7.85;4.13;;;;;;;;;;5091426;28;20040;-72
2022/07/21 11:42:20;;;;;;;5.78;4.28;;;;;;;;;;5088075;28;20036;-75
2022/07/21 11:44:47;;;;;;;5.78;4.30;;;;;;;;;;5072210;28;20024;-74
2022/07/21 11:47:14;;;;;;;5.03;3.92;;;;;;;;;;5071837;28;20032;-73
2022/07/21 11:49:41;;;;;;;8.40;4.22;;;;;;;;;;5071529;28;20074;-71
2022/07/21 11:52:10;;;;;;;5.00;4.03;;;;;;;;;;5069423;28;20029;-74
2022/07/21 11:54:46;;;;;;;6.63;4.45;;;;;;;;;;5068491;28;20431;-74
2022/07/21 11:57:13;;;;;;;7.70;4.47;;;;;;;;;;5070145;28;20016;-74
2022/07/21 11:59:41;;;;;;;9.20;4.22;;;;;;;;;;5070760;28;20770;-76
2022/07/21 12:02:11;;;;;;;8.32;4.05;;;;;;;;;;5070120;28;20025;-75
2022/07/21 12:04:44;;;;;;;9.50;4.10;;;;;;;;;;5068177;28;20027;-74
2022/07/21 12:07:14;;;;;;;8.73;3.75;;;;;;;;;;5070329;28;20489;-75
2022/07/21 12:09:41;;;;;;;4.45;3.97;;;;;;;;;;5070755;28;20432;-73
2022/07/21 12:12:08;;;;;;;9.50;4.40;;;;;;;;;;5070195;28;20037;-74
2022/07/21 12:14:43;;;;;;;5.95;3.80;;;;;;;;;;5070277;28;20058;-74
2022/07/21 12:17:09;;;;;;;6.03;3.88;;;;;;;;;;5069382;28;20028;-75
2022/07/21 12:19:36;;;;;;;7.60;4.38;;;;;;;;;;5070509;28;20035;-74
2022/07/21 12:22:03;;;;;;;7.05;3.95;;;;;;;;;;5069835;28;20485;-74
2022/07/21 12:24:49;;;;;;;5.80;3.92;;;;;;;;;;5070899;28;20040;-75
2022/07/21 12:27:17;;;;;;;6.25;3.80;;;;;;;;;;5070358;28;20036;-75
2022/07/21 12:29:43;;;;;;;4.75;3.90;;;;;;;;;;5070134;28;20037;-74
2022/07/21 12:32:09;;;;;;;5.90;4.00;;;;;;;;;;5069787;28;20551;-74
2022/07/21 12:34:52;;;;;;;4.72;4.00;;;;;;;;;;5068320;28;20385;-75
2022/07/21 12:37:19;;;;;;;4.25;3.83;;;;;;;;;;5069519;28;20046;-74
2022/07/21 12:40:00;;;;;;;6.72;3.78;;;;;;;;;;5072332;28;20039;-74
2022/07/21 12:42:38;;;;;;;6.97;3.83;;;;;;;;;;5090334;28;20031;-74
2022/07/21 12:45:13;;;;;;;7.68;3.90;;;;;;;;;;5060352;28;20442;-75
2022/07/21 12:47:39;;;;;;;4.97;3.70;;;;;;;;;;5070180;28;20381;-75
2022/07/21 12:50:07;;;;;;;5.47;3.53;;;;;;;;;;5067954;28;20036;-73
2022/07/21 12:52:33;;;;;;;4.25;3.72;;;;;;;;;;5102050;28;20143;-75
2022/07/21 12:55:01;;;;;;;8.13;4.43;;;;;;;;;;5070257;28;20017;-75
2022/07/21 12:57:28;;;;;;;6.65;3.83;;;;;;;;;;5069834;28;20028;-75
2022/07/21 12:59:55;;;;;;;6.00;3.83;;;;;;;;;;5069543;28;20025;-75
2022/07/21 13:02:21;;;;;;;7.03;3.80;;;;;;;;;;5069620;28;20036;-75
2022/07/21 13:04:48;;;;;;;5.40;3.97;;;;;;;;;;5069682;28;20034;-75
2022/07/21 13:07:14;;;;;;;5.25;3.60;;;;;;;;;;5068799;28;20085;-74
2022/07/21 13:09:41;;;;;;;12.30;5.05;;;;;;;;;;5069389;28;20382;-74
2022/07/21 13:12:07;;;;;;;5.93;3.65;;;;;;;;;;5067489;28;20020;-75
2022/07/21 13:14:34;;;;;;;8.98;3.85;;;;;;;;;;5068166;28;20505;-74
2022/07/21 13:17:00;;;;;;;4.28;3.83;;;;;;;;;;5070215;28;20028;-75
2022/07/21 13:19:27;;;;;;;5.30;3.83;;;;;;;;;;5073197;28;20066;-74
2022/07/21 13:21:53;;;;;;;6.40;4.00;;;;;;;;;;5072906;28;20017;-73
2022/07/21 13:24:20;;;;;;;6.35;3.75;;;;;;;;;;5076971;28;20037;-74
2022/07/21 13:26:46;;;;;;;8.30;4.10;;;;;;;;;;5073515;28;20030;-75
2022/07/21 13:29:12;;;;;;;5.28;3.80;;;;;;;;;;5073431;28;20392;-74
2022/07/21 13:31:39;;;;;;;7.60;3.85;;;;;;;;;;5073336;28;20032;-74
2022/07/21 13:34:07;;;;;;;11.13;3.58;;;;;;;;;;5073107;28;20019;-73
2022/07/21 13:36:34;;;;;;;5.07;3.83;;;;;;;;;;5072319;28;20042;-70
2022/07/21 13:39:00;;;;;;;4.57;3.55;;;;;;;;;;5073166;28;20055;-74
2022/07/21 13:41:26;;;;;;;8.68;3.53;;;;;;;;;;5090435;28;20039;-74
2022/07/21 13:43:53;;;;;;;5.18;3.78;;;;;;;;;;5077287;28;20028;-73
2022/07/21 13:46:19;;;;;;;5.28;3.70;;;;;;;;;;5072729;28;20176;-72
2022/07/21 13:48:46;;;;;;;7.07;3.90;;;;;;;;;;5072554;28;20501;-68
2022/07/21 13:51:14;;;;;;;7.00;3.80;;;;;;;;;;5072194;28;20085;-67
2022/07/21 13:53:40;;;;;;;6.50;3.83;;;;;;;;;;5072361;28;20537;-68
2022/07/21 13:56:07;;;;;;;11.80;3.75;;;;;;;;;;5072279;28;20028;-67
2022/07/21 13:58:33;;;;;;;4.35;3.65;;;;;;;;;;5072920;28;20020;-68
2022/07/21 14:00:59;;;;;;;5.45;3.50;;;;;;;;;;5072568;28;20029;-72
2022/07/21 14:03:26;;;;;;;7.05;3.97;;;;;;;;;;5072916;28;20028;-70
2022/07/21 14:05:52;;;;;;;5.22;3.60;;;;;;;;;;5073004;28;20020;-70
2022/07/21 14:08:19;;;;;;;4.50;3.58;;;;;;;;;;5070721;28;20032;-69
2022/07/21 14:10:45;;;;;;;8.20;3.72;;;;;;;;;;5071729;28;20045;-69
2022/07/21 14:13:11;;;;;;;5.75;3.80;;;;;;;;;;5073233;28;20378;-71
2022/07/21 14:15:38;;;;;;;5.95;3.95;;;;;;;;;;5072845;28;20035;-69
2022/07/21 14:18:04;;;;;;;7.13;3.80;;;;;;;;;;5072805;28;20054;-68
2022/07/21 14:20:31;;;;;;;5.40;3.83;;;;;;;;;;5072670;28;20481;-68
2022/07/21 14:22:57;;;;;;;6.32;4.00;;;;;;;;;;5072902;28;20041;-69
2022/07/21 14:25:24;;;;;;;8.88;4.00;;;;;;;;;;5088061;28;20077;-69
2022/07/21 14:27:51;;;;;;;9.48;4.03;;;;;;;;;;5071917;28;20032;-69
2022/07/21 14:30:18;;;;;;;6.22;3.85;;;;;;;;;;5071332;28;20029;-69
2022/07/21 14:32:45;;;;;;;6.97;3.78;;;;;;;;;;5072743;28;20036;-67
2022/07/21 14:35:14;;;;;;;7.65;4.10;;;;;;;;;;5072821;28;20032;-67
2022/07/21 14:37:41;;;;;;;7.57;4.28;;;;;;;;;;5073027;28;20020;-67
2022/07/21 14:40:08;;;;;;;6.13;4.03;;;;;;;;;;5077991;28;20035;-66
2022/07/21 14:42:35;;;;;;;4.65;3.90;;;;;;;;;;5092836;28;20062;-66
2022/07/21 14:45:01;;;;;;;4.70;4.22;;;;;;;;;;5086839;28;20021;-66
2022/07/21 14:47:29;;;;;;;7.85;3.85;;;;;;;;;;5071070;28;20035;-68